Time;durP1;ratioP1;P1;durP2;ratioP2;P2;SDS_P1;SDS_P2;PMS_P1;PMS_P2;Temp;Humidity;BMP_temperature;BMP_pressure;BME280_temperature;BME280_humidity;BME280_pressure;Samples;Min_cycle;Max_cycle;Signal;HPM_P1;HPM_P2
2020/12/05 00:01:01;;;;;;;33.05;23.25;;;4.30;93.40;;;;;;5037448;28;20201;-84
2020/12/05 00:03:28;;;;;;;28.42;21.50;;;4.30;93.30;;;;;;5029186;28;20282;-86
2020/12/05 00:05:55;;;;;;;25.02;21.23;;;4.30;93.40;;;;;;5038477;28;20199;-85
2020/12/05 00:08:21;;;;;;;29.40;20.73;;;4.50;93.30;;;;;;5049458;28;20932;-85
2020/12/05 00:10:47;;;;;;;27.60;21.73;;;4.40;93.20;;;;;;5047474;28;20218;-85
2020/12/05 00:13:14;;;;;;;35.00;22.55;;;4.50;93.30;;;;;;5048165;28;20285;-85
2020/12/05 00:15:41;;;;;;;37.47;22.48;;;4.50;93.00;;;;;;5038183;28;20210;-85
2020/12/05 00:18:07;;;;;;;33.63;23.45;;;4.40;92.80;;;;;;5047819;28;20311;-86
2020/12/05 00:20:34;;;;;;;32.22;22.77;;;3.90;93.00;;;;;;5040494;28;20193;-85
2020/12/05 00:23:01;;;;;;;26.40;21.02;;;3.50;94.50;;;;;;5031274;28;20197;-85
2020/12/05 00:25:27;;;;;;;26.17;21.33;;;3.80;95.60;;;;;;5048692;28;20234;-85
2020/12/05 00:27:54;;;;;;;30.58;21.65;;;4.10;95.20;;;;;;5046637;28;20250;-85
2020/12/05 00:30:20;;;;;;;40.47;22.98;;;4.00;94.80;;;;;;5043442;28;20228;-85
2020/12/05 00:32:47;;;;;;;26.98;21.88;;;4.10;94.90;;;;;;5028780;28;20597;-85
2020/12/05 00:35:14;;;;;;;33.10;21.67;;;4.20;94.50;;;;;;5032971;28;20262;-85
2020/12/05 00:37:41;;;;;;;31.15;20.52;;;4.20;94.20;;;;;;5028925;28;20239;-84
2020/12/05 00:40:08;;;;;;;30.48;22.75;;;3.80;94.30;;;;;;5042071;28;20250;-85
2020/12/05 00:42:34;;;;;;;32.35;23.98;;;3.80;95.30;;;;;;5035869;28;20555;-85
2020/12/05 00:45:01;;;;;;;31.13;21.92;;;4.00;95.70;;;;;;5046653;28;20208;-83
2020/12/05 00:47:28;;;;;;;32.53;23.15;;;3.80;95.60;;;;;;5044096;28;20200;-85
2020/12/05 00:49:55;;;;;;;34.70;23.42;;;3.50;95.80;;;;;;5038612;28;20212;-85
2020/12/05 00:52:22;;;;;;;26.55;20.42;;;3.60;96.80;;;;;;5041838;28;20203;-85
2020/12/05 00:54:50;;;;;;;34.78;24.15;;;3.80;96.70;;;;;;5048651;28;20261;-85
2020/12/05 00:57:16;;;;;;;27.10;21.45;;;4.00;96.40;;;;;;5043955;28;20274;-85
2020/12/05 00:59:43;;;;;;;26.63;22.00;;;4.00;96.00;;;;;;5028764;28;20246;-85
2020/12/05 01:02:09;;;;;;;28.02;23.17;;;3.80;95.80;;;;;;5046670;28;20226;-85
2020/12/05 01:04:36;;;;;;;26.95;21.17;;;3.30;96.60;;;;;;5047987;28;20192;-85
2020/12/05 01:07:04;;;;;;;39.55;23.65;;;3.20;97.40;;;;;;5046633;28;20698;-86
2020/12/05 01:09:33;;;;;;;33.75;23.08;;;3.10;97.90;;;;;;5047570;28;20536;-86
2020/12/05 01:12:01;;;;;;;30.50;23.63;;;3.20;98.40;;;;;;5047936;28;20583;-86
2020/12/05 01:14:27;;;;;;;33.90;23.17;;;3.40;98.70;;;;;;5048725;28;20203;-86
2020/12/05 01:16:54;;;;;;;33.72;21.25;;;3.60;98.10;;;;;;5030123;28;20740;-86
2020/12/05 01:19:20;;;;;;;28.55;21.50;;;3.70;97.70;;;;;;5031516;28;20188;-85
2020/12/05 01:21:46;;;;;;;38.58;23.42;;;3.90;97.50;;;;;;5046049;28;20253;-86
2020/12/05 01:24:13;;;;;;;30.70;23.45;;;4.00;97.00;;;;;;5042896;28;20197;-86
2020/12/05 01:26:39;;;;;;;36.13;22.88;;;4.20;96.80;;;;;;5027813;28;20236;-85
2020/12/05 01:29:07;;;;;;;29.95;22.63;;;4.00;96.90;;;;;;5029932;28;20602;-85
2020/12/05 01:31:33;;;;;;;30.60;21.75;;;4.00;97.10;;;;;;5042960;28;20579;-85
2020/12/05 01:34:02;;;;;;;27.40;21.50;;;4.00;97.30;;;;;;5048078;28;20200;-86
2020/12/05 01:36:29;;;;;;;29.10;22.58;;;4.00;97.30;;;;;;5046767;28;20220;-86
2020/12/05 01:38:56;;;;;;;28.58;23.08;;;4.10;97.60;;;;;;5044441;28;20200;-85
2020/12/05 01:41:23;;;;;;;37.55;23.70;;;4.10;97.60;;;;;;5047780;28;20265;-85
2020/12/05 01:43:49;;;;;;;30.13;22.00;;;4.20;97.50;;;;;;5046907;28;20677;-85
2020/12/05 01:46:31;;;;;;;27.73;21.45;;;4.30;97.30;;;;;;5031263;28;20200;-85
2020/12/05 01:48:58;;;;;;;29.90;22.15;;;4.30;97.50;;;;;;5028510;28;20200;-85
2020/12/05 01:51:25;;;;;;;29.40;22.27;;;4.40;97.80;;;;;;5039567;28;20274;-85
2020/12/05 01:53:51;;;;;;;29.20;23.52;;;4.50;97.80;;;;;;5036693;28;20200;-84
2020/12/05 01:56:18;;;;;;;25.80;19.33;;;4.30;97.90;;;;;;5048330;28;20234;-85
2020/12/05 01:58:44;;;;;;;27.05;20.85;;;4.20;98.40;;;;;;5035061;28;20224;-84
2020/12/05 02:01:13;;;;;;;25.48;19.75;;;4.10;98.60;;;;;;5046097;28;20196;-84
2020/12/05 02:03:40;;;;;;;26.05;21.27;;;4.20;99.00;;;;;;5034836;28;20189;-84
2020/12/05 02:06:14;;;;;;;25.98;19.75;;;4.20;98.80;;;;;;5039950;28;20199;-83
2020/12/05 02:09:00;;;;;;;25.83;19.50;;;4.00;99.00;;;;;;5034952;28;20794;-84
2020/12/05 02:11:35;;;;;;;23.02;15.90;;;4.00;99.30;;;;;;5046937;28;20196;-83
2020/12/05 02:14:05;;;;;;;26.23;16.55;;;4.00;99.10;;;;;;5051882;28;20214;-84
2020/12/05 02:16:34;;;;;;;23.05;16.33;;;3.30;99.30;;;;;;5048559;28;20274;-83
2020/12/05 02:19:05;;;;;;;21.13;16.13;;;3.10;99.90;;;;;;5051201;28;20334;-83
2020/12/05 02:21:34;;;;;;;19.15;14.93;;;3.20;99.90;;;;;;5033830;28;20201;-83
2020/12/05 02:24:04;;;;;;;20.15;15.88;;;3.20;99.90;;;;;;5033393;28;20205;-83
2020/12/05 02:26:31;;;;;;;17.58;15.02;;;3.20;99.90;;;;;;5049446;28;20208;-83
2020/12/05 02:29:01;;;;;;;21.10;15.25;;;3.40;99.90;;;;;;5044907;28;20204;-84
2020/12/05 02:31:29;;;;;;;20.38;16.02;;;3.50;99.90;;;;;;5044654;28;20285;-83
2020/12/05 02:34:01;;;;;;;18.25;14.25;;;3.20;99.90;;;;;;5041487;28;20204;-81
2020/12/05 02:36:34;;;;;;;22.00;16.20;;;3.40;99.90;;;;;;5046094;28;20208;-82
2020/12/05 02:39:06;;;;;;;18.17;15.00;;;3.40;99.90;;;;;;5049073;28;20231;-81
2020/12/05 02:41:37;;;;;;;21.27;14.55;;;3.40;99.90;;;;;;5035524;28;20575;-82
2020/12/05 02:44:03;;;;;;;18.90;15.18;;;3.50;99.90;;;;;;5043551;28;20207;-81
2020/12/05 02:46:30;;;;;;;18.60;14.55;;;3.40;99.90;;;;;;5042600;28;20197;-81
2020/12/05 02:48:57;;;;;;;19.63;15.00;;;3.50;99.90;;;;;;5031139;28;20193;-81
2020/12/05 02:51:23;;;;;;;20.77;16.23;;;3.50;99.90;;;;;;5045530;28;20203;-81
2020/12/05 02:53:50;;;;;;;19.13;14.30;;;3.60;99.90;;;;;;5040702;28;20247;-81
2020/12/05 02:56:18;;;;;;;20.60;15.23;;;3.60;99.90;;;;;;5030914;28;20212;-81
2020/12/05 02:58:46;;;;;;;20.85;16.13;;;3.70;99.90;;;;;;5044037;28;20772;-82
2020/12/05 03:01:14;;;;;;;21.02;15.40;;;3.70;99.90;;;;;;5049357;28;20261;-81
2020/12/05 03:03:40;;;;;;;19.73;14.18;;;3.70;99.80;;;;;;5050641;28;20298;-82
2020/12/05 03:06:07;;;;;;;20.42;15.68;;;3.70;99.60;;;;;;5049326;28;20192;-81
2020/12/05 03:08:33;;;;;;;17.73;14.05;;;3.70;99.40;;;;;;5049022;28;20207;-82
2020/12/05 03:11:00;;;;;;;22.73;14.35;;;3.60;99.20;;;;;;5047773;28;20590;-82
2020/12/05 03:13:27;;;;;;;19.17;16.13;;;3.80;99.70;;;;;;5049203;28;20204;-82
2020/12/05 03:15:53;;;;;;;19.75;16.17;;;3.60;99.50;;;;;;5048822;28;20196;-82
2020/12/05 03:18:20;;;;;;;19.90;15.10;;;3.70;99.50;;;;;;5050543;28;20247;-82
2020/12/05 03:20:46;;;;;;;21.08;14.45;;;3.70;99.60;;;;;;5036918;28;20207;-82
2020/12/05 03:23:13;;;;;;;19.85;14.95;;;3.70;99.30;;;;;;5030732;28;20889;-82
2020/12/05 03:25:39;;;;;;;17.52;13.38;;;3.30;98.70;;;;;;5048279;28;20597;-82
2020/12/05 03:28:05;;;;;;;15.85;13.35;;;3.20;99.70;;;;;;5046293;28;20220;-82
2020/12/05 03:30:33;;;;;;;20.38;14.38;;;3.20;99.90;;;;;;5036389;28;20191;-82
2020/12/05 03:32:59;;;;;;;18.00;14.02;;;3.20;99.90;;;;;;5049077;28;20228;-81
2020/12/05 03:35:26;;;;;;;16.52;12.73;;;3.20;99.90;;;;;;5048647;28;20202;-81
2020/12/05 03:37:53;;;;;;;19.70;13.35;;;3.30;99.90;;;;;;5050653;28;20259;-81
2020/12/05 03:40:19;;;;;;;16.08;14.10;;;3.50;99.90;;;;;;5042438;28;20200;-82
2020/12/05 03:42:46;;;;;;;15.40;12.65;;;3.60;99.90;;;;;;5036492;28;20740;-82
2020/12/05 03:45:12;;;;;;;18.38;14.00;;;3.60;99.90;;;;;;5041310;28;20204;-82
2020/12/05 03:47:39;;;;;;;18.83;13.50;;;3.80;99.70;;;;;;5048516;28;20188;-82
2020/12/05 03:50:06;;;;;;;14.80;12.48;;;3.70;99.30;;;;;;5035212;28;20212;-82
2020/12/05 03:52:33;;;;;;;15.10;11.60;;;3.80;99.30;;;;;;5036044;28;20200;-82
2020/12/05 03:54:59;;;;;;;16.65;13.07;;;3.80;99.10;;;;;;5038894;28;20192;-82
2020/12/05 03:57:25;;;;;;;17.73;13.32;;;3.70;99.10;;;;;;5046044;28;20240;-82
2020/12/05 03:59:52;;;;;;;16.23;12.73;;;3.70;99.20;;;;;;5031051;28;20201;-82
2020/12/05 04:02:18;;;;;;;13.77;11.50;;;3.90;99.30;;;;;;5029498;28;20251;-82
2020/12/05 04:04:46;;;;;;;15.43;12.55;;;3.80;98.90;;;;;;5032689;28;20201;-82
2020/12/05 04:07:13;;;;;;;15.88;13.35;;;3.90;98.90;;;;;;5045060;28;20239;-82
2020/12/05 04:09:41;;;;;;;17.13;12.95;;;3.80;98.80;;;;;;5032081;28;20216;-81
2020/12/05 04:12:08;;;;;;;15.65;12.50;;;3.80;98.90;;;;;;5047663;28;20215;-82
2020/12/05 04:14:35;;;;;;;12.07;10.80;;;4.40;99.20;;;;;;5041729;28;20228;-81
2020/12/05 04:17:03;;;;;;;14.23;10.88;;;4.00;98.90;;;;;;5040326;28;20274;-82
2020/12/05 04:19:30;;;;;;;15.82;11.00;;;4.60;99.10;;;;;;5030033;28;20205;-81
2020/12/05 04:21:58;;;;;;;14.50;11.07;;;3.90;98.70;;;;;;5029126;28;20553;-82
2020/12/05 04:24:25;;;;;;;13.38;11.23;;;3.90;98.70;;;;;;5029954;28;20694;-82
2020/12/05 04:26:53;;;;;;;15.15;11.05;;;3.80;98.80;;;;;;5028823;28;20772;-82
2020/12/05 04:29:21;;;;;;;13.10;11.68;;;3.70;99.00;;;;;;5044874;28;20195;-81
2020/12/05 04:31:48;;;;;;;15.43;11.85;;;3.80;99.40;;;;;;5029559;28;20216;-81
2020/12/05 04:34:15;;;;;;;14.20;11.05;;;3.80;99.30;;;;;;5029641;28;20227;-82
2020/12/05 04:36:42;;;;;;;14.88;11.90;;;3.90;99.30;;;;;;5045969;28;20211;-82
2020/12/05 04:39:11;;;;;;;13.35;11.75;;;4.10;99.10;;;;;;5049247;28;20553;-81
2020/12/05 04:41:41;;;;;;;14.35;11.25;;;5.20;99.30;;;;;;5047078;28;20224;-82
2020/12/05 04:44:09;;;;;;;12.57;10.93;;;4.00;98.60;;;;;;5048063;28;20203;-81
2020/12/05 04:46:37;;;;;;;14.55;10.80;;;3.90;98.40;;;;;;5044582;28;20286;-82
2020/12/05 04:49:05;;;;;;;14.07;12.00;;;3.90;98.50;;;;;;5048308;28;20245;-82
2020/12/05 04:51:36;;;;;;;14.77;10.90;;;3.90;98.40;;;;;;5043268;28;20207;-82
2020/12/05 04:54:05;;;;;;;14.02;12.55;;;3.80;98.50;;;;;;5031730;28;21064;-82
2020/12/05 04:56:38;;;;;;;12.57;10.88;;;3.80;98.60;;;;;;5031775;28;20724;-82
2020/12/05 04:59:07;;;;;;;12.13;10.88;;;3.70;98.60;;;;;;5045430;28;20279;-82
2020/12/05 05:01:36;;;;;;;16.60;11.88;;;3.70;98.80;;;;;;5047968;28;20203;-82
2020/12/05 05:04:05;;;;;;;14.40;11.77;;;3.70;98.70;;;;;;5049408;28;20223;-82
2020/12/05 05:06:32;;;;;;;12.73;10.00;;;3.70;98.70;;;;;;5047019;28;20200;-82
2020/12/05 05:09:00;;;;;;;16.00;11.32;;;3.80;98.70;;;;;;5049193;28;20274;-82
2020/12/05 05:11:28;;;;;;;14.30;11.60;;;3.70;98.70;;;;;;5030471;28;20288;-82
2020/12/05 05:13:59;;;;;;;15.20;11.00;;;3.60;99.00;;;;;;5029121;28;20279;-82
2020/12/05 05:16:28;;;;;;;13.55;11.02;;;3.70;99.20;;;;;;5031517;28;20193;-82
2020/12/05 05:18:54;;;;;;;13.18;11.02;;;3.70;99.10;;;;;;5032977;28;20223;-82
2020/12/05 05:21:38;;;;;;;15.10;12.00;;;3.70;99.10;;;;;;5030623;28;20196;-81
2020/12/05 05:24:11;;;;;;;13.80;10.95;;;3.70;99.20;;;;;;5030138;28;20615;-82
2020/12/05 05:26:37;;;;;;;11.70;9.60;;;3.80;99.20;;;;;;5047253;28;20195;-82
2020/12/05 05:29:05;;;;;;;13.93;12.18;;;3.70;99.10;;;;;;5032710;28;20205;-82
2020/12/05 05:31:48;;;;;;;13.38;10.48;;;3.80;99.20;;;;;;5029305;28;20192;-82
2020/12/05 05:34:20;;;;;;;12.93;11.52;;;3.90;99.10;;;;;;5035015;28;20227;-83
2020/12/05 05:36:47;;;;;;;21.58;11.95;;;3.80;98.90;;;;;;5036349;28;20197;-83
2020/12/05 05:39:14;;;;;;;12.50;10.05;;;3.80;99.00;;;;;;5039722;28;20227;-82
2020/12/05 05:41:46;;;;;;;13.68;11.60;;;3.70;99.00;;;;;;5051261;28;20278;-82
2020/12/05 05:44:15;;;;;;;13.85;10.77;;;3.70;99.40;;;;;;5035510;28;20234;-82
2020/12/05 05:46:44;;;;;;;12.65;10.35;;;3.80;99.40;;;;;;5051956;28;20196;-83
2020/12/05 05:49:12;;;;;;;11.68;10.48;;;3.80;99.40;;;;;;5052754;28;20204;-83
2020/12/05 05:51:40;;;;;;;14.18;11.13;;;3.70;99.70;;;;;;5033851;28;20209;-82
2020/12/05 05:54:11;;;;;;;13.90;10.75;;;3.90;99.70;;;;;;5034868;28;20320;-82
2020/12/05 05:56:38;;;;;;;11.82;10.63;;;3.80;99.30;;;;;;5051690;28;20597;-82
2020/12/05 05:59:06;;;;;;;15.07;11.45;;;3.80;99.70;;;;;;5038020;28;20301;-82
2020/12/05 06:01:36;;;;;;;10.60;8.80;;;3.70;99.70;;;;;;5046914;28;20200;-82
2020/12/05 06:04:13;;;;;;;10.55;9.10;;;3.60;99.90;;;;;;5038907;28;20223;-82
2020/12/05 06:06:39;;;;;;;9.65;8.68;;;3.70;99.90;;;;;;5045054;28;20224;-82
2020/12/05 06:09:06;;;;;;;9.20;7.72;;;3.60;99.90;;;;;;5051489;28;20204;-81
2020/12/05 06:11:34;;;;;;;9.57;7.82;;;3.70;99.90;;;;;;5033170;28;20251;-83
2020/12/05 06:14:02;;;;;;;9.82;7.75;;;3.90;99.90;;;;;;5051544;28;20204;-82
2020/12/05 06:16:28;;;;;;;8.98;7.80;;;3.50;99.80;;;;;;5041140;28;20207;-83
2020/12/05 06:18:57;;;;;;;8.25;7.43;;;3.70;99.90;;;;;;5043929;28;20262;-83
2020/12/05 06:21:31;;;;;;;8.43;7.53;;;3.80;99.90;;;;;;5035613;28;20689;-83
2020/12/05 06:24:05;;;;;;;9.52;6.97;;;3.60;99.90;;;;;;5044198;28;20200;-83
2020/12/05 06:26:35;;;;;;;7.68;6.75;;;3.70;99.90;;;;;;5037360;28;20201;-83
2020/12/05 06:29:06;;;;;;;10.43;7.15;;;3.60;99.90;;;;;;5048052;28;20249;-83
2020/12/05 06:31:50;;;;;;;7.85;6.78;;;3.60;99.90;;;;;;5048234;28;20222;-83
2020/12/05 06:34:36;;;;;;;7.95;7.18;;;3.70;99.90;;;;;;5039562;28;20196;-83
2020/12/05 06:37:03;;;;;;;9.25;6.80;;;3.70;99.90;;;;;;5032212;28;20258;-83
2020/12/05 06:39:29;;;;;;;6.90;6.30;;;3.70;99.90;;;;;;5044645;28;20261;-83
2020/12/05 06:41:57;;;;;;;8.95;7.35;;;3.70;99.90;;;;;;5034705;28;20228;-83
2020/12/05 06:44:25;;;;;;;7.85;7.05;;;3.70;99.90;;;;;;5036123;28;20215;-82
2020/12/05 06:46:55;;;;;;;7.18;6.22;;;3.60;99.90;;;;;;5036643;28;20939;-82
2020/12/05 06:49:45;;;;;;;6.68;6.03;;;3.60;99.90;;;;;;5031934;28;20204;-82
2020/12/05 06:52:41;;;;;;;8.57;7.00;;;3.70;99.90;;;;;;5050577;28;20196;-82
2020/12/05 06:55:29;;;;;;;8.50;6.65;;;3.70;99.90;;;;;;4988458;28;20202;-82
2020/12/05 06:58:03;;;;;;;7.70;6.30;;;3.70;99.90;;;;;;5039381;28;20233;-82
2020/12/05 07:00:35;;;;;;;6.63;5.68;;;3.70;99.90;;;;;;5031664;28;20192;-82
2020/12/05 07:03:04;;;;;;;7.00;6.30;;;3.60;99.90;;;;;;5031831;28;20274;-82
2020/12/05 07:05:35;;;;;;;6.55;5.28;;;3.60;99.90;;;;;;5032453;28;20193;-82
2020/12/05 07:08:18;;;;;;;5.90;5.38;;;3.70;99.90;;;;;;5031719;28;20274;-82
2020/12/05 07:10:47;;;;;;;7.10;5.40;;;3.60;99.90;;;;;;5033579;28;20269;-82
2020/12/05 07:13:15;;;;;;;6.43;5.70;;;3.60;99.90;;;;;;5032317;28;20232;-83
2020/12/05 07:15:41;;;;;;;6.68;5.90;;;3.60;99.90;;;;;;5042837;28;20242;-82
2020/12/05 07:18:09;;;;;;;6.97;6.32;;;3.60;99.90;;;;;;5031457;28;20259;-83
2020/12/05 07:20:37;;;;;;;6.35;5.85;;;3.70;99.90;;;;;;5049442;28;20250;-83
2020/12/05 07:23:04;;;;;;;7.90;6.15;;;3.80;99.90;;;;;;5035913;28;20231;-82
2020/12/05 07:25:30;;;;;;;6.97;5.85;;;3.80;99.90;;;;;;5032790;28;20227;-83
2020/12/05 07:27:57;;;;;;;6.95;6.13;;;3.80;99.70;;;;;;5030863;28;20209;-83
2020/12/05 07:30:23;;;;;;;5.88;5.20;;;3.60;99.70;;;;;;5031631;28;20239;-83
2020/12/05 07:32:51;;;;;;;6.57;5.97;;;3.50;99.70;;;;;;5030314;28;20255;-83
2020/12/05 07:35:17;;;;;;;7.60;6.93;;;3.50;99.90;;;;;;5033006;28;20200;-83
2020/12/05 07:37:45;;;;;;;9.00;6.00;;;3.50;99.90;;;;;;5030771;28;20228;-83
2020/12/05 07:40:12;;;;;;;8.30;6.32;;;3.30;99.90;;;;;;5031773;28;20254;-84
2020/12/05 07:42:40;;;;;;;6.32;5.75;;;3.40;99.90;;;;;;5029852;28;20220;-84
2020/12/05 07:45:08;;;;;;;5.75;5.03;;;3.50;99.90;;;;;;5038906;28;20934;-85
2020/12/05 07:47:35;;;;;;;5.78;5.22;;;3.50;99.90;;;;;;5035802;28;20197;-84
2020/12/05 07:50:02;;;;;;;6.75;6.15;;;3.60;99.90;;;;;;5039982;28;20247;-84
2020/12/05 07:52:29;;;;;;;6.70;6.03;;;3.70;99.90;;;;;;5036769;28;20203;-84
2020/12/05 07:54:58;;;;;;;6.45;5.80;;;3.80;99.90;;;;;;5050283;28;20265;-87
2020/12/05 07:57:25;;;;;;;5.93;5.32;;;3.80;99.90;;;;;;5047657;28;20297;-84
2020/12/05 08:00:00;;;;;;;7.18;6.18;;;3.80;99.90;;;;;;5047366;28;20226;-84
2020/12/05 08:02:40;;;;;;;8.10;6.63;;;3.80;99.90;;;;;;5045531;28;20200;-85
2020/12/05 08:05:11;;;;;;;9.60;7.22;;;3.80;99.80;;;;;;5045876;28;20201;-83
2020/12/05 08:07:39;;;;;;;8.38;6.30;;;3.90;99.80;;;;;;5042108;28;20653;-84
2020/12/05 08:10:09;;;;;;;8.98;7.65;;;3.90;99.80;;;;;;5044105;28;20188;-85
2020/12/05 08:13:16;;;;;;;7.47;6.03;;;4.00;99.70;;;;;;5036128;28;20250;-84
2020/12/05 08:15:43;;;;;;;7.22;5.95;;;4.10;99.50;;;;;;5048621;28;20219;-84
2020/12/05 08:18:10;;;;;;;7.05;6.35;;;4.10;99.20;;;;;;5048536;28;20222;-84
2020/12/05 08:20:43;;;;;;;6.93;6.15;;;4.70;99.30;;;;;;5049827;28;20599;-84
2020/12/05 08:23:19;;;;;;;6.80;5.13;;;4.10;99.00;;;;;;5048777;28;20286;-84
2020/12/05 08:25:49;;;;;;;7.18;6.45;;;4.10;99.00;;;;;;5050171;28;20238;-85
2020/12/05 08:28:19;;;;;;;13.85;6.68;;;4.20;99.10;;;;;;5045249;28;20254;-84
2020/12/05 08:30:46;;;;;;;10.35;7.15;;;4.20;98.70;;;;;;5042408;28;20201;-85
2020/12/05 08:33:14;;;;;;;7.88;6.32;;;4.20;98.80;;;;;;5028742;28;20201;-85
2020/12/05 08:35:41;;;;;;;10.23;6.97;;;4.20;98.80;;;;;;5037068;28;20670;-84
2020/12/05 08:38:13;;;;;;;10.05;8.05;;;4.30;98.60;;;;;;5029438;28;20342;-84
2020/12/05 08:40:39;;;;;;;16.35;6.85;;;4.20;98.60;;;;;;5037220;28;20192;-84
2020/12/05 08:43:08;;;;;;;12.32;7.07;;;4.30;98.80;;;;;;5048517;28;20240;-84
2020/12/05 08:45:38;;;;;;;6.03;5.38;;;4.90;99.10;;;;;;5043215;28;20249;-85
2020/12/05 08:48:16;;;;;;;8.48;5.43;;;4.30;99.10;;;;;;5030658;28;20239;-84
2020/12/05 08:50:43;;;;;;;9.43;5.20;;;4.40;99.20;;;;;;5041253;28;20231;-84
2020/12/05 08:53:10;;;;;;;4.80;4.40;;;4.40;99.00;;;;;;5048560;28;20254;-84
2020/12/05 08:55:37;;;;;;;4.85;4.47;;;4.40;98.80;;;;;;5037428;28;20253;-84
2020/12/05 08:58:05;;;;;;;5.25;4.43;;;4.50;99.00;;;;;;5030013;28;20325;-84
2020/12/05 09:00:33;;;;;;;5.70;4.97;;;4.60;98.90;;;;;;5034927;28;20691;-85
2020/12/05 09:03:01;;;;;;;11.80;5.97;;;4.70;98.70;;;;;;5045134;28;20337;-84
2020/12/05 09:05:28;;;;;;;19.45;7.40;;;4.70;98.50;;;;;;5048559;28;20210;-85
2020/12/05 09:07:56;;;;;;;7.10;6.05;;;4.70;98.30;;;;;;5042059;28;20262;-85
2020/12/05 09:10:24;;;;;;;8.23;7.00;;;4.70;98.20;;;;;;5048839;28;20204;-85
2020/12/05 09:12:51;;;;;;;11.00;7.10;;;4.70;98.30;;;;;;5042338;28;20201;-85
2020/12/05 09:15:18;;;;;;;9.30;7.13;;;4.90;98.20;;;;;;5039127;28;20262;-85
2020/12/05 09:17:45;;;;;;;15.38;7.90;;;4.90;97.80;;;;;;5053175;28;20220;-85
2020/12/05 09:20:15;;;;;;;8.88;6.40;;;4.90;97.60;;;;;;5047598;28;20643;-85
2020/12/05 09:22:47;;;;;;;9.60;6.13;;;5.10;97.50;;;;;;5032298;28;20597;-85
2020/12/05 09:25:25;;;;;;;7.15;6.45;;;4.80;97.30;;;;;;5038563;28;20215;-85
2020/12/05 09:27:52;;;;;;;5.82;5.15;;;4.80;97.40;;;;;;5050184;28;20249;-85
2020/12/05 09:30:18;;;;;;;6.90;6.20;;;4.80;97.50;;;;;;5036201;28;20204;-86
2020/12/05 09:32:47;;;;;;;7.80;7.05;;;5.30;97.70;;;;;;5053083;28;21322;-84
2020/12/05 09:35:16;;;;;;;8.20;5.85;;;5.00;97.40;;;;;;5049617;28;20771;-84
2020/12/05 09:37:43;;;;;;;6.97;6.38;;;4.80;97.40;;;;;;5054004;28;20293;-85
2020/12/05 09:40:11;;;;;;;9.65;6.93;;;5.10;97.80;;;;;;5042051;28;20254;-84
2020/12/05 09:42:38;;;;;;;9.35;6.00;;;5.10;97.30;;;;;;5049045;28;20188;-85
2020/12/05 09:45:05;;;;;;;8.60;7.55;;;5.00;97.00;;;;;;5041488;28;20185;-84
2020/12/05 09:47:32;;;;;;;11.13;7.82;;;5.40;97.10;;;;;;5053814;28;20300;-85
2020/12/05 09:50:00;;;;;;;9.05;6.78;;;5.00;97.00;;;;;;5038320;28;20247;-85
2020/12/05 09:52:26;;;;;;;8.23;7.20;;;5.00;97.00;;;;;;5046124;28;20250;-85
2020/12/05 09:54:54;;;;;;;8.45;7.55;;;5.00;97.20;;;;;;5032953;28;20669;-85
2020/12/05 09:57:20;;;;;;;9.75;8.55;;;5.10;97.10;;;;;;5037673;28;20246;-85
2020/12/05 09:59:46;;;;;;;8.65;7.60;;;4.90;96.90;;;;;;5033957;28;20196;-84
2020/12/05 10:02:13;;;;;;;10.43;8.85;;;4.90;97.00;;;;;;5032945;28;20593;-84
2020/12/05 10:04:40;;;;;;;9.75;8.75;;;5.40;97.60;;;;;;5034599;28;20247;-85
2020/12/05 10:07:07;;;;;;;9.85;8.43;;;4.80;97.40;;;;;;5052884;28;20200;-84
2020/12/05 10:09:34;;;;;;;9.45;8.60;;;4.80;97.40;;;;;;5034690;28;20200;-85
2020/12/05 10:12:00;;;;;;;15.70;10.02;;;4.80;97.50;;;;;;5036978;28;20246;-84
2020/12/05 10:14:27;;;;;;;13.82;10.02;;;5.30;97.70;;;;;;5053049;28;20756;-84
2020/12/05 10:16:53;;;;;;;10.43;9.43;;;4.70;97.70;;;;;;5050191;28;20200;-83
2020/12/05 10:19:20;;;;;;;11.55;9.68;;;4.60;97.80;;;;;;5052487;28;20220;-84
2020/12/05 10:21:47;;;;;;;15.88;11.27;;;4.60;97.90;;;;;;5050981;28;20196;-84
2020/12/05 10:24:15;;;;;;;11.98;10.80;;;4.70;97.90;;;;;;5050944;28;20200;-85
2020/12/05 10:26:41;;;;;;;12.43;11.15;;;4.60;97.90;;;;;;5050164;28;20655;-84
2020/12/05 10:29:08;;;;;;;14.68;12.80;;;4.70;98.10;;;;;;5048225;28;20195;-84
2020/12/05 10:31:43;;;;;;;15.35;10.95;;;5.30;99.90;;;;;;5037192;28;20224;-84
2020/12/05 10:34:09;;;;;;;12.98;11.43;;;4.90;98.30;;;;;;5050352;28;20196;-84
2020/12/05 10:36:36;;;;;;;15.32;12.50;;;4.90;97.70;;;;;;5035163;28;20223;-85
2020/12/05 10:39:02;;;;;;;14.55;11.23;;;5.00;97.80;;;;;;5032629;28;20223;-85
2020/12/05 10:41:30;;;;;;;14.93;11.68;;;5.00;97.60;;;;;;5032360;28;20192;-85
2020/12/05 10:43:56;;;;;;;13.50;12.18;;;4.90;97.40;;;;;;5033196;28;20212;-83
2020/12/05 10:46:22;;;;;;;13.05;11.75;;;4.90;97.50;;;;;;5048410;28;20208;-85
2020/12/05 10:48:49;;;;;;;12.55;11.30;;;4.90;97.50;;;;;;5035551;28;20415;-85
2020/12/05 10:51:15;;;;;;;12.90;11.50;;;5.00;97.50;;;;;;5034063;28;20695;-85
2020/12/05 10:53:42;;;;;;;12.43;11.23;;;4.90;97.50;;;;;;5036595;28;20192;-85
2020/12/05 10:56:08;;;;;;;23.58;17.70;;;4.80;97.60;;;;;;5051850;28;20281;-85
2020/12/05 10:58:36;;;;;;;18.58;15.63;;;5.60;98.00;;;;;;5048267;28;20313;-85
2020/12/05 11:01:02;;;;;;;16.38;13.45;;;4.80;97.60;;;;;;5038877;28;20239;-85
2020/12/05 11:03:28;;;;;;;16.50;12.10;;;4.90;97.70;;;;;;5033616;28;20196;-85
2020/12/05 11:05:55;;;;;;;14.75;11.80;;;4.80;97.60;;;;;;5040941;28;20196;-85
2020/12/05 11:08:21;;;;;;;16.48;14.40;;;4.80;97.80;;;;;;5052779;28;20196;-85
2020/12/05 11:10:48;;;;;;;18.52;14.82;;;4.90;97.90;;;;;;5044636;28;21250;-85
2020/12/05 11:13:14;;;;;;;21.30;15.00;;;5.00;98.00;;;;;;5038954;28;20760;-86
2020/12/05 11:15:42;;;;;;;16.95;14.20;;;4.90;97.90;;;;;;5050797;28;20250;-85
2020/12/05 11:18:08;;;;;;;16.80;14.27;;;4.90;97.80;;;;;;5051730;28;20305;-86
2020/12/05 11:20:35;;;;;;;14.40;12.90;;;5.00;97.80;;;;;;5043793;28;20242;-86
2020/12/05 11:23:01;;;;;;;15.68;12.82;;;5.20;98.00;;;;;;5048531;28;20246;-85
2020/12/05 11:25:30;;;;;;;22.35;13.48;;;5.20;97.70;;;;;;5035760;28;20196;-86
2020/12/05 11:27:56;;;;;;;18.17;13.15;;;5.20;97.70;;;;;;5050834;28;20295;-86
2020/12/05 11:30:23;;;;;;;18.45;12.27;;;5.50;97.70;;;;;;5043979;28;20212;-86
2020/12/05 11:32:50;;;;;;;18.50;13.13;;;5.90;98.00;;;;;;5049604;28;20204;-85
2020/12/05 11:35:18;;;;;;;17.70;11.68;;;5.20;97.40;;;;;;5051394;28;20673;-85
2020/12/05 11:37:45;;;;;;;13.18;11.77;;;5.30;98.80;;;;;;5038315;28;20185;-86
2020/12/05 11:40:11;;;;;;;12.73;11.48;;;5.30;98.80;;;;;;5049951;28;20637;-84
2020/12/05 11:43:16;;;;;;;;;;;;;;;;;;;;;
2020/12/05 11:45:56;;;;;;;12.23;10.93;;;5.30;98.00;;;;;;5038799;28;20210;-85
2020/12/05 11:48:23;;;;;;;20.60;11.68;;;5.30;98.20;;;;;;5051120;28;20716;-86
2020/12/05 11:50:50;;;;;;;12.85;10.95;;;5.80;98.00;;;;;;5038567;28;20208;-86
2020/12/05 11:53:16;;;;;;;12.85;11.55;;;5.30;97.60;;;;;;5045636;28;20199;-86
2020/12/05 11:55:43;;;;;;;18.25;15.48;;;6.00;97.60;;;;;;5050524;28;20196;-86
2020/12/05 11:58:09;;;;;;;13.85;12.23;;;5.40;97.50;;;;;;5048088;28;20701;-85
2020/12/05 12:00:37;;;;;;;13.45;11.13;;;5.30;99.90;;;;;;5050645;28;20202;-85
2020/12/05 12:03:03;;;;;;;14.15;12.38;;;5.50;97.00;;;;;;5049720;28;20214;-86
2020/12/05 12:05:31;;;;;;;15.15;12.95;;;5.40;97.00;;;;;;5049684;28;20245;-85
2020/12/05 12:07:57;;;;;;;17.90;14.20;;;5.40;97.00;;;;;;5050489;28;20661;-85
2020/12/05 12:10:24;;;;;;;15.50;13.05;;;6.00;97.40;;;;;;5050730;28;20188;-86
2020/12/05 12:12:50;;;;;;;16.80;13.68;;;5.40;97.10;;;;;;5041070;28;20208;-85
2020/12/05 12:15:16;;;;;;;18.70;12.68;;;5.40;97.30;;;;;;5031710;28;20599;-85
2020/12/05 12:17:43;;;;;;;15.85;12.38;;;5.60;97.30;;;;;;5030266;28;20204;-85
2020/12/05 12:20:11;;;;;;;20.55;14.77;;;5.50;97.00;;;;;;5034010;28;20261;-84
2020/12/05 12:22:38;;;;;;;16.73;13.77;;;5.50;97.20;;;;;;5031014;28;20197;-85
2020/12/05 12:25:05;;;;;;;15.20;13.30;;;5.50;97.20;;;;;;5031635;28;20200;-85
2020/12/05 12:27:32;;;;;;;16.63;13.10;;;5.50;97.30;;;;;;5031628;28;20238;-85
2020/12/05 12:29:58;;;;;;;16.00;13.68;;;5.50;97.50;;;;;;5047695;28;20265;-85
2020/12/05 12:32:25;;;;;;;14.70;12.40;;;5.60;97.30;;;;;;5029792;28;20196;-84
2020/12/05 12:34:51;;;;;;;16.88;13.05;;;5.70;97.10;;;;;;5047814;28;20204;-86
2020/12/05 12:37:18;;;;;;;11.70;10.45;;;5.50;96.90;;;;;;5041661;28;20215;-85
2020/12/05 12:39:45;;;;;;;19.48;12.70;;;5.60;97.20;;;;;;5048766;28;20277;-84
2020/12/05 12:42:12;;;;;;;15.10;11.40;;;5.50;97.30;;;;;;5032432;28;20197;-85
2020/12/05 12:44:39;;;;;;;16.52;12.05;;;5.60;97.70;;;;;;5047060;28;20188;-84
2020/12/05 12:47:15;;;;;;;14.38;12.88;;;5.70;97.80;;;;;;5045198;28;20622;-85
2020/12/05 12:49:41;;;;;;;12.68;11.38;;;5.70;97.30;;;;;;5031755;28;20211;-85